Time;durP1;ratioP1;P1;durP2;ratioP2;P2;SDS_P1;SDS_P2;PMS_P1;PMS_P2;Temp;Humidity;BMP_temperature;BMP_pressure;BME280_temperature;BME280_humidity;BME280_pressure;Samples;Min_cycle;Max_cycle;Signal;HPM_P1;HPM_P2
2024/01/05 00:02:11;;;;;;;24.08;9.50;;;4.70;99.90;;;;;;5049680;28;20377;-68
2024/01/05 00:04:36;;;;;;;20.75;8.20;;;4.70;99.90;;;;;;5049549;28;20056;-68
2024/01/05 00:07:02;;;;;;;18.30;8.90;;;4.70;99.90;;;;;;5043637;28;20037;-69
2024/01/05 00:09:28;;;;;;;21.77;8.52;;;4.70;99.90;;;;;;5026243;28;20114;-68
2024/01/05 00:11:53;;;;;;;26.50;9.75;;;4.70;99.90;;;;;;5049700;28;20045;-68
2024/01/05 00:14:19;;;;;;;24.90;9.32;;;4.70;99.90;;;;;;5028247;28;20094;-67
2024/01/05 00:16:46;;;;;;;19.30;9.00;;;4.70;99.90;;;;;;5030170;28;20039;-68
2024/01/05 00:19:12;;;;;;;22.90;9.10;;;4.70;99.90;;;;;;5043989;28;20065;-67
2024/01/05 00:21:38;;;;;;;25.05;9.85;;;4.70;99.90;;;;;;5031328;28;20396;-67
2024/01/05 00:24:03;;;;;;;23.40;9.63;;;4.70;99.90;;;;;;5049635;28;20440;-67
2024/01/05 00:26:29;;;;;;;25.85;9.52;;;4.70;99.90;;;;;;5038586;28;20033;-68
2024/01/05 00:28:54;;;;;;;23.75;9.25;;;4.70;99.90;;;;;;5043698;28;20535;-68
2024/01/05 00:31:20;;;;;;;16.25;8.77;;;4.70;99.90;;;;;;5042523;28;20049;-68
2024/01/05 00:33:46;;;;;;;21.13;9.25;;;4.70;99.90;;;;;;5043073;28;20450;-69
2024/01/05 00:36:12;;;;;;;22.98;9.18;;;4.70;99.90;;;;;;5041224;28;20125;-67
2024/01/05 00:38:38;;;;;;;26.60;9.25;;;4.60;99.90;;;;;;5033119;28;20124;-67
2024/01/05 00:41:04;;;;;;;25.38;9.48;;;4.60;99.90;;;;;;5052960;28;20264;-67
2024/01/05 00:43:30;;;;;;;24.30;9.18;;;4.70;99.90;;;;;;5030556;28;20539;-69
2024/01/05 00:45:56;;;;;;;23.42;8.48;;;4.60;99.90;;;;;;5050566;28;20029;-69
2024/01/05 00:48:22;;;;;;;21.25;8.70;;;4.70;99.90;;;;;;5049058;28;20479;-68
2024/01/05 00:50:48;;;;;;;21.73;8.73;;;4.60;99.90;;;;;;5023010;28;20045;-67
2024/01/05 00:53:13;;;;;;;25.80;10.40;;;4.60;99.90;;;;;;5044401;28;20399;-67
2024/01/05 00:55:39;;;;;;;23.55;9.32;;;4.60;99.90;;;;;;5052248;28;20068;-70
2024/01/05 00:58:05;;;;;;;20.40;9.05;;;4.60;99.90;;;;;;5050214;28;20029;-68
2024/01/05 01:00:31;;;;;;;20.38;9.15;;;4.60;99.90;;;;;;5044221;28;20096;-68
2024/01/05 01:02:56;;;;;;;22.45;8.82;;;4.60;99.90;;;;;;5052171;28;20033;-67
2024/01/05 01:05:22;;;;;;;23.42;9.25;;;4.50;99.90;;;;;;5046259;28;20524;-67
2024/01/05 01:07:48;;;;;;;21.30;9.48;;;4.60;99.90;;;;;;5046013;28;20040;-67
2024/01/05 01:10:14;;;;;;;27.15;9.85;;;4.60;99.90;;;;;;5052139;28;20063;-68
2024/01/05 01:12:39;;;;;;;25.38;9.48;;;4.60;99.90;;;;;;5052552;28;20479;-68
2024/01/05 01:15:06;;;;;;;22.95;9.15;;;4.60;99.90;;;;;;5044784;28;20036;-67
2024/01/05 01:17:32;;;;;;;20.48;8.40;;;4.60;99.90;;;;;;5052534;28;20415;-68
2024/01/05 01:19:58;;;;;;;24.13;9.57;;;4.60;99.90;;;;;;5052693;28;20036;-68
2024/01/05 01:22:24;;;;;;;22.55;9.15;;;4.50;99.90;;;;;;5042643;28;20063;-69
2024/01/05 01:24:49;;;;;;;25.23;8.80;;;4.50;99.90;;;;;;5045772;28;20029;-70
2024/01/05 01:27:16;;;;;;;21.75;8.98;;;4.50;99.90;;;;;;5052156;28;20032;-69
2024/01/05 01:29:41;;;;;;;19.48;8.55;;;4.50;99.90;;;;;;5052768;28;20051;-68
2024/01/05 01:32:09;;;;;;;18.60;8.52;;;4.50;99.90;;;;;;5046018;28;20033;-68
2024/01/05 01:34:38;;;;;;;24.10;8.68;;;4.50;99.90;;;;;;5051466;28;20436;-68
2024/01/05 01:37:04;;;;;;;23.58;9.15;;;4.50;99.90;;;;;;5052048;28;20060;-69
2024/01/05 01:39:30;;;;;;;22.35;9.07;;;4.50;99.90;;;;;;5041182;28;20418;-67
2024/01/05 01:41:56;;;;;;;22.08;8.35;;;4.50;99.90;;;;;;5043670;28;20071;-69
2024/01/05 01:44:22;;;;;;;21.35;8.73;;;4.50;99.90;;;;;;5051715;28;20057;-69
2024/01/05 01:46:50;;;;;;;20.13;8.75;;;4.50;99.90;;;;;;5050823;28;20128;-68
2024/01/05 01:49:16;;;;;;;21.08;8.00;;;4.50;99.90;;;;;;5046094;28;20048;-72
2024/01/05 01:51:42;;;;;;;23.45;8.63;;;4.50;99.90;;;;;;5044292;28;20047;-67
2024/01/05 01:54:07;;;;;;;20.08;8.77;;;4.50;99.90;;;;;;5051348;28;20041;-68
2024/01/05 01:56:34;;;;;;;18.05;8.13;;;4.50;99.90;;;;;;5039241;28;20045;-67
2024/01/05 01:59:01;;;;;;;21.58;8.85;;;4.50;99.90;;;;;;5048882;28;20091;-67
2024/01/05 02:01:27;;;;;;;19.15;8.98;;;4.40;99.90;;;;;;5033701;28;20045;-68
2024/01/05 02:03:53;;;;;;;21.83;8.90;;;4.40;99.90;;;;;;5051645;28;20527;-69
2024/01/05 02:06:20;;;;;;;17.95;8.13;;;4.50;99.90;;;;;;5035370;28;20144;-68
2024/01/05 02:08:46;;;;;;;18.25;7.95;;;4.50;99.90;;;;;;5051365;28;20487;-68
2024/01/05 02:11:13;;;;;;;18.30;8.75;;;4.50;99.90;;;;;;5033605;28;20049;-68
2024/01/05 02:13:39;;;;;;;18.98;9.07;;;4.50;99.90;;;;;;5036812;28;20048;-68
2024/01/05 02:16:04;;;;;;;20.08;8.75;;;4.50;99.90;;;;;;5046286;28;20033;-68
2024/01/05 02:18:30;;;;;;;18.63;8.10;;;4.50;99.90;;;;;;5033548;28;20045;-68
2024/01/05 02:20:59;;;;;;;23.10;8.98;;;4.50;99.90;;;;;;5051269;28;20048;-68
2024/01/05 02:23:29;;;;;;;18.02;9.00;;;4.60;99.90;;;;;;5047322;28;20408;-68
2024/01/05 02:25:55;;;;;;;17.55;8.63;;;4.60;99.90;;;;;;5027079;28;20048;-68
2024/01/05 02:28:21;;;;;;;19.83;8.20;;;4.60;99.90;;;;;;5030760;28;20087;-67
2024/01/05 02:30:47;;;;;;;17.83;8.63;;;4.60;99.90;;;;;;5043639;28;20041;-67
2024/01/05 02:33:12;;;;;;;19.40;9.25;;;4.60;99.90;;;;;;5046609;28;20037;-68
2024/01/05 02:35:38;;;;;;;15.77;7.57;;;4.50;99.90;;;;;;5050772;28;20033;-68
2024/01/05 02:38:05;;;;;;;21.15;8.63;;;4.60;99.90;;;;;;5047568;28;20044;-68
2024/01/05 02:40:30;;;;;;;17.45;8.70;;;4.60;99.90;;;;;;5035643;28;20033;-67
2024/01/05 02:42:56;;;;;;;19.02;8.23;;;4.60;99.90;;;;;;5032486;28;20047;-68
2024/01/05 02:45:22;;;;;;;15.38;7.95;;;4.60;99.90;;;;;;5046743;28;20081;-68
2024/01/05 02:47:51;;;;;;;20.48;8.25;;;4.60;99.90;;;;;;5040470;28;20108;-69
2024/01/05 02:50:18;;;;;;;21.40;8.55;;;4.60;99.90;;;;;;5050284;28;20112;-68
2024/01/05 02:52:44;;;;;;;17.52;8.65;;;4.60;99.90;;;;;;5050704;28;20043;-68
2024/01/05 02:55:10;;;;;;;19.23;8.90;;;4.60;99.90;;;;;;5039537;28;20033;-69
2024/01/05 02:57:37;;;;;;;16.27;7.90;;;4.60;99.90;;;;;;5049654;28;20033;-68
2024/01/05 03:00:03;;;;;;;17.05;8.38;;;4.60;99.90;;;;;;5050308;28;20170;-69
2024/01/05 03:02:29;;;;;;;17.45;7.90;;;4.60;99.90;;;;;;5042176;28;20071;-67
2024/01/05 03:04:55;;;;;;;20.35;8.23;;;4.60;99.90;;;;;;5038427;28;20127;-67
2024/01/05 03:07:20;;;;;;;17.20;8.48;;;4.70;99.90;;;;;;5032635;28;20037;-67
2024/01/05 03:09:47;;;;;;;19.33;8.30;;;4.60;99.90;;;;;;5050650;28;20055;-69
2024/01/05 03:12:12;;;;;;;17.20;7.68;;;4.70;99.90;;;;;;5040331;28;20037;-69
2024/01/05 03:14:38;;;;;;;18.08;8.38;;;4.70;99.90;;;;;;5041921;28;20055;-68
2024/01/05 03:17:04;;;;;;;17.33;7.88;;;4.70;99.90;;;;;;5032294;28;20570;-68
2024/01/05 03:19:30;;;;;;;17.85;8.40;;;4.70;99.90;;;;;;5041899;28;20120;-68
2024/01/05 03:21:56;;;;;;;15.82;8.30;;;4.70;99.90;;;;;;5041810;28;20115;-68
2024/01/05 03:24:22;;;;;;;18.02;7.90;;;4.70;99.90;;;;;;5050103;28;20037;-68
2024/01/05 03:26:48;;;;;;;16.45;7.75;;;4.70;99.90;;;;;;5022078;28;20049;-68
2024/01/05 03:29:13;;;;;;;15.13;8.15;;;4.70;99.90;;;;;;5043018;28;20094;-68
2024/01/05 03:31:39;;;;;;;18.90;8.18;;;4.70;99.90;;;;;;5050175;28;20068;-68
2024/01/05 03:34:04;;;;;;;16.58;9.05;;;4.70;99.90;;;;;;5049678;28;20048;-68
2024/01/05 03:36:30;;;;;;;18.50;8.95;;;4.80;99.90;;;;;;5039778;28;20045;-68
2024/01/05 03:38:55;;;;;;;16.40;8.10;;;4.80;99.90;;;;;;5049924;28;20116;-68
2024/01/05 03:41:21;;;;;;;18.27;9.10;;;4.80;99.90;;;;;;5050374;28;20063;-68
2024/01/05 03:43:47;;;;;;;19.50;8.95;;;4.80;99.90;;;;;;5049997;28;20029;-68
2024/01/05 03:46:12;;;;;;;19.02;9.07;;;4.80;99.90;;;;;;5043103;28;20044;-68
2024/01/05 03:48:38;;;;;;;20.00;8.82;;;4.80;99.90;;;;;;5043120;28;20104;-68
2024/01/05 03:51:04;;;;;;;16.67;8.63;;;4.80;99.90;;;;;;5050305;28;20045;-68
2024/01/05 03:53:30;;;;;;;18.23;9.02;;;4.80;99.90;;;;;;5042359;28;20041;-68
2024/01/05 03:55:59;;;;;;;18.27;9.60;;;4.80;99.90;;;;;;5031571;28;20048;-68
2024/01/05 03:58:25;;;;;;;21.70;10.05;;;4.80;99.90;;;;;;5032286;28;20072;-68
2024/01/05 04:00:50;;;;;;;17.92;9.23;;;4.80;99.90;;;;;;5039616;28;20063;-69
2024/01/05 04:03:19;;;;;;;18.33;9.00;;;4.80;99.90;;;;;;5048859;28;20037;-69
2024/01/05 04:05:45;;;;;;;18.20;9.23;;;4.80;99.90;;;;;;5050199;28;20047;-69
2024/01/05 04:08:10;;;;;;;19.67;10.13;;;4.80;99.90;;;;;;5048259;28;20037;-67
2024/01/05 04:10:36;;;;;;;17.42;9.13;;;4.80;99.90;;;;;;5037716;28;20606;-68
2024/01/05 04:13:03;;;;;;;16.50;8.98;;;4.80;99.90;;;;;;5028105;28;20041;-69
2024/01/05 04:15:29;;;;;;;18.42;9.30;;;4.90;99.90;;;;;;5053488;28;20116;-69
2024/01/05 04:17:54;;;;;;;21.77;9.27;;;4.90;99.90;;;;;;5051120;28;20127;-67
2024/01/05 04:20:20;;;;;;;20.83;9.55;;;4.90;99.90;;;;;;5024744;28;20124;-68
2024/01/05 04:22:45;;;;;;;21.85;9.48;;;4.90;99.90;;;;;;5053055;28;20068;-67
2024/01/05 04:25:11;;;;;;;18.65;9.50;;;4.90;99.90;;;;;;5031880;28;20071;-67
2024/01/05 04:27:37;;;;;;;20.65;9.88;;;4.90;99.90;;;;;;5046617;28;20021;-67
2024/01/05 04:30:04;;;;;;;19.85;8.73;;;4.90;99.90;;;;;;5053276;28;20032;-69
2024/01/05 04:32:30;;;;;;;18.08;9.73;;;4.90;99.90;;;;;;5035482;28;20219;-67
2024/01/05 04:34:56;;;;;;;29.20;10.05;;;4.90;99.90;;;;;;5045302;28;20779;-68
2024/01/05 04:37:21;;;;;;;19.70;10.18;;;4.90;99.90;;;;;;5034554;28;20065;-68
2024/01/05 04:39:47;;;;;;;20.25;10.15;;;4.90;99.90;;;;;;5053067;28;20044;-68
2024/01/05 04:42:12;;;;;;;19.90;9.63;;;5.00;99.90;;;;;;5044446;28;20033;-70
2024/01/05 04:44:38;;;;;;;21.05;10.02;;;5.00;99.90;;;;;;5048156;28;20051;-68
2024/01/05 04:47:04;;;;;;;20.17;9.75;;;5.00;99.90;;;;;;5052013;28;20068;-68
2024/01/05 04:49:31;;;;;;;20.60;10.55;;;5.00;99.90;;;;;;5051719;28;20072;-66
2024/01/05 04:51:57;;;;;;;21.77;10.40;;;5.00;99.90;;;;;;5048234;28;20079;-69
2024/01/05 04:54:23;;;;;;;20.10;10.60;;;5.00;99.90;;;;;;5050977;28;20067;-69
2024/01/05 04:56:49;;;;;;;20.35;10.95;;;5.00;99.90;;;;;;5051464;28;20428;-68
2024/01/05 04:59:14;;;;;;;20.85;10.57;;;5.00;99.90;;;;;;5040699;28;20103;-69
2024/01/05 05:01:40;;;;;;;20.85;10.88;;;5.00;99.90;;;;;;5050613;28;20096;-68
2024/01/05 05:04:05;;;;;;;20.95;11.00;;;5.00;99.90;;;;;;5052496;28;20060;-68
2024/01/05 05:06:31;;;;;;;20.27;10.50;;;5.00;99.90;;;;;;5052857;28;20045;-68
2024/01/05 05:08:57;;;;;;;21.20;10.70;;;5.00;99.90;;;;;;5022347;28;20519;-68
2024/01/05 05:11:22;;;;;;;20.20;10.90;;;5.00;99.90;;;;;;5049847;28;20127;-69
2024/01/05 05:13:48;;;;;;;23.55;10.75;;;5.00;99.90;;;;;;5052174;28;20037;-68
2024/01/05 05:16:13;;;;;;;21.85;10.98;;;5.00;99.90;;;;;;5044909;28;20440;-68
2024/01/05 05:18:39;;;;;;;20.35;10.43;;;5.00;99.90;;;;;;5049127;28;20040;-69
2024/01/05 05:21:05;;;;;;;22.40;10.80;;;5.00;99.90;;;;;;5052609;28;20077;-70
2024/01/05 05:23:31;;;;;;;21.95;11.02;;;5.00;99.90;;;;;;5049428;28;20061;-70
2024/01/05 05:25:57;;;;;;;19.70;9.95;;;5.10;99.90;;;;;;5037534;28;20436;-69
2024/01/05 05:28:23;;;;;;;19.08;10.13;;;5.10;99.90;;;;;;5049413;28;20071;-69
2024/01/05 05:30:49;;;;;;;20.40;10.80;;;5.10;99.90;;;;;;5052488;28;20392;-68
2024/01/05 05:33:14;;;;;;;19.92;10.30;;;5.10;99.90;;;;;;5048905;28;20049;-68
2024/01/05 05:35:40;;;;;;;20.15;10.82;;;5.10;99.90;;;;;;5051626;28;20153;-68
2024/01/05 05:38:06;;;;;;;21.83;10.88;;;5.20;99.90;;;;;;5052261;28;20037;-68
2024/01/05 05:40:32;;;;;;;23.58;11.05;;;5.20;99.90;;;;;;5052248;28;20044;-68
2024/01/05 05:42:58;;;;;;;22.13;11.13;;;5.20;99.90;;;;;;5046835;28;20086;-68
2024/01/05 05:45:23;;;;;;;23.35;11.27;;;5.20;99.90;;;;;;5050826;28;20049;-69
2024/01/05 05:47:50;;;;;;;23.15;11.07;;;5.30;99.90;;;;;;5052170;28;20040;-67
2024/01/05 05:50:16;;;;;;;22.17;11.85;;;5.20;99.90;;;;;;5047535;28;20093;-68
2024/01/05 05:52:43;;;;;;;22.13;10.93;;;5.30;99.90;;;;;;5043104;28;20484;-68
2024/01/05 05:55:12;;;;;;;29.70;11.65;;;5.30;99.90;;;;;;5051876;28;20033;-68
2024/01/05 05:57:40;;;;;;;22.25;11.02;;;5.30;99.90;;;;;;5048813;28;20040;-67
2024/01/05 06:00:07;;;;;;;22.70;11.35;;;5.30;99.90;;;;;;5039086;28;20116;-68
2024/01/05 06:02:32;;;;;;;26.30;12.13;;;5.30;99.90;;;;;;5049888;28;20043;-68
2024/01/05 06:04:58;;;;;;;24.83;10.80;;;5.30;99.90;;;;;;5049502;28;20482;-67
2024/01/05 06:07:24;;;;;;;22.75;10.93;;;5.30;99.90;;;;;;5032402;28;20044;-68
2024/01/05 06:09:50;;;;;;;23.35;11.20;;;5.30;99.90;;;;;;5044628;28;20029;-68
2024/01/05 06:12:17;;;;;;;26.92;11.80;;;5.40;99.90;;;;;;5050890;28;20040;-67
2024/01/05 06:14:44;;;;;;;25.85;12.25;;;5.40;99.90;;;;;;5033302;28;20037;-68
2024/01/05 06:17:09;;;;;;;23.85;11.95;;;5.40;99.90;;;;;;5041616;28;20033;-69
2024/01/05 06:19:35;;;;;;;24.58;12.25;;;5.40;99.90;;;;;;5050953;28;20122;-68
2024/01/05 06:22:00;;;;;;;25.65;11.82;;;5.40;99.90;;;;;;5045281;28;20033;-69
2024/01/05 06:24:26;;;;;;;26.67;12.07;;;5.40;99.90;;;;;;5037225;28;20050;-68
2024/01/05 06:26:52;;;;;;;27.23;12.85;;;5.50;99.90;;;;;;5050665;28;20083;-68
2024/01/05 06:29:17;;;;;;;28.98;12.40;;;5.50;99.90;;;;;;5051588;28;20048;-68
2024/01/05 06:31:43;;;;;;;27.83;12.57;;;5.50;99.90;;;;;;5041399;28;20033;-68
2024/01/05 06:34:08;;;;;;;33.05;12.52;;;5.50;99.90;;;;;;5044220;28;20029;-68
2024/01/05 06:36:34;;;;;;;27.27;12.27;;;5.50;99.90;;;;;;5050060;28;20531;-68
2024/01/05 06:39:00;;;;;;;26.48;11.88;;;5.50;99.90;;;;;;5040203;28;20131;-69
2024/01/05 06:41:25;;;;;;;27.58;12.52;;;5.50;99.90;;;;;;5049747;28;20036;-67
2024/01/05 06:43:51;;;;;;;25.48;12.45;;;5.60;99.90;;;;;;5050328;28;20033;-68
2024/01/05 06:46:17;;;;;;;27.50;12.38;;;5.60;99.90;;;;;;5046452;28;20096;-68
2024/01/05 06:48:43;;;;;;;27.48;12.77;;;5.60;99.90;;;;;;5046145;28;20138;-68
2024/01/05 06:51:08;;;;;;;32.53;12.95;;;5.60;99.90;;;;;;5046625;28;20043;-70
2024/01/05 06:53:34;;;;;;;24.52;12.98;;;5.60;99.90;;;;;;5050145;28;20033;-67
2024/01/05 06:55:59;;;;;;;29.30;13.40;;;5.60;99.90;;;;;;5040934;28;20148;-68
2024/01/05 06:58:25;;;;;;;26.42;12.73;;;5.60;99.90;;;;;;5047545;28;20039;-69
2024/01/05 07:00:50;;;;;;;29.42;12.95;;;5.70;99.90;;;;;;5050389;28;20041;-70
2024/01/05 07:03:16;;;;;;;32.60;12.57;;;5.70;99.90;;;;;;5050223;28;20044;-69
2024/01/05 07:05:41;;;;;;;30.00;13.27;;;5.70;99.90;;;;;;5039450;28;20407;-69
2024/01/05 07:08:07;;;;;;;27.80;13.45;;;5.70;99.90;;;;;;5050161;28;20033;-68
2024/01/05 07:10:33;;;;;;;30.02;13.70;;;5.70;99.90;;;;;;5050267;28;20049;-69
2024/01/05 07:12:59;;;;;;;26.30;12.77;;;5.70;99.90;;;;;;5040284;28;20048;-68
2024/01/05 07:15:25;;;;;;;26.40;12.48;;;5.70;99.90;;;;;;5042458;28;20049;-68
2024/01/05 07:17:50;;;;;;;33.35;13.77;;;5.70;99.90;;;;;;5050845;28;20116;-69
2024/01/05 07:20:16;;;;;;;29.50;12.90;;;5.70;99.90;;;;;;5050594;28;20040;-69
2024/01/05 07:22:42;;;;;;;29.35;13.30;;;5.70;99.90;;;;;;5046691;28;20040;-69
2024/01/05 07:25:10;;;;;;;27.52;12.70;;;5.70;99.90;;;;;;5049706;28;20029;-69
2024/01/05 07:27:37;;;;;;;32.00;13.80;;;5.80;99.90;;;;;;5022599;28;20075;-69
2024/01/05 07:30:04;;;;;;;31.55;12.57;;;5.80;99.90;;;;;;5035024;28;20037;-68
2024/01/05 07:32:30;;;;;;;31.75;13.35;;;5.80;99.90;;;;;;5041559;28;20041;-68
2024/01/05 07:34:55;;;;;;;30.20;13.13;;;5.80;99.90;;;;;;5049880;28;20047;-68
2024/01/05 07:37:21;;;;;;;29.98;12.95;;;5.80;99.90;;;;;;5043818;28;20045;-68
2024/01/05 07:39:47;;;;;;;25.35;11.85;;;5.90;99.90;;;;;;5048147;28;20032;-68
2024/01/05 07:42:12;;;;;;;26.73;12.90;;;5.90;99.90;;;;;;5050275;28;20407;-68
2024/01/05 07:44:39;;;;;;;25.85;12.90;;;5.90;99.90;;;;;;5032090;28;20041;-68
2024/01/05 07:47:04;;;;;;;33.42;13.30;;;6.00;99.90;;;;;;5041654;28;20043;-68
2024/01/05 07:49:30;;;;;;;30.05;11.98;;;6.00;99.90;;;;;;5052571;28;20041;-68
2024/01/05 07:51:56;;;;;;;27.13;12.20;;;6.00;99.90;;;;;;5054222;28;20099;-68
2024/01/05 07:54:21;;;;;;;32.58;12.43;;;6.00;99.90;;;;;;5049662;28;20040;-68
2024/01/05 07:56:47;;;;;;;28.92;12.63;;;6.10;99.90;;;;;;5053735;28;20136;-68
2024/01/05 07:59:14;;;;;;;32.17;12.40;;;6.10;99.90;;;;;;5054130;28;20036;-69
2024/01/05 08:01:40;;;;;;;31.45;13.02;;;6.10;99.90;;;;;;5048630;28;20104;-69
2024/01/05 08:04:05;;;;;;;32.03;13.30;;;6.10;99.90;;;;;;5044274;28;20195;-69
2024/01/05 08:06:31;;;;;;;27.25;12.75;;;6.20;99.90;;;;;;5048657;28;20041;-69
2024/01/05 08:08:56;;;;;;;28.40;12.35;;;6.20;99.90;;;;;;5053304;28;20052;-69
2024/01/05 08:11:22;;;;;;;24.55;12.10;;;6.20;99.90;;;;;;5033158;28;20053;-67
2024/01/05 08:13:47;;;;;;;27.70;11.88;;;6.20;99.90;;;;;;5051936;28;20615;-68
2024/01/05 08:16:13;;;;;;;32.38;11.57;;;6.30;99.90;;;;;;5053751;28;20488;-67
2024/01/05 08:18:40;;;;;;;34.28;12.52;;;6.30;99.90;;;;;;5047733;28;20030;-67
2024/01/05 08:21:06;;;;;;;31.63;12.68;;;6.40;99.90;;;;;;5048500;28;20037;-69
2024/01/05 08:23:34;;;;;;;22.55;10.85;;;6.40;99.90;;;;;;5052702;28;20103;-68
2024/01/05 08:26:00;;;;;;;28.25;11.45;;;6.50;99.90;;;;;;5053501;28;20041;-67
2024/01/05 08:28:26;;;;;;;24.65;11.90;;;6.60;99.90;;;;;;5048115;28;20045;-67
2024/01/05 08:30:52;;;;;;;24.30;11.80;;;6.60;99.90;;;;;;5047633;28;20037;-68
2024/01/05 08:33:18;;;;;;;27.45;11.00;;;6.60;99.90;;;;;;5052882;28;20079;-69
2024/01/05 08:35:44;;;;;;;28.73;11.95;;;6.70;99.90;;;;;;5044526;28;20050;-67
2024/01/05 08:38:10;;;;;;;26.58;11.00;;;6.70;99.90;;;;;;5051367;28;20029;-68
2024/01/05 08:40:35;;;;;;;24.92;10.68;;;6.70;99.90;;;;;;5053169;28;20086;-69
2024/01/05 08:43:02;;;;;;;24.40;10.43;;;6.80;99.90;;;;;;5047795;28;20044;-68
2024/01/05 08:45:29;;;;;;;26.10;10.18;;;6.70;99.90;;;;;;5032897;28;20124;-68
2024/01/05 08:47:55;;;;;;;28.95;10.55;;;6.80;99.90;;;;;;5044776;28;20041;-67
2024/01/05 08:50:20;;;;;;;26.30;10.05;;;6.70;99.90;;;;;;5050047;28;20090;-68
2024/01/05 08:52:46;;;;;;;23.33;10.02;;;6.80;99.90;;;;;;5044859;28;20383;-68
2024/01/05 08:55:15;;;;;;;25.17;9.70;;;6.70;99.90;;;;;;5052516;28;20025;-68
2024/01/05 08:57:41;;;;;;;22.92;9.27;;;6.70;99.90;;;;;;5044648;28;20112;-68
2024/01/05 09:00:10;;;;;;;23.95;9.27;;;6.80;99.90;;;;;;5052666;28;20159;-68
2024/01/05 09:02:36;;;;;;;25.48;9.50;;;6.80;99.90;;;;;;5041054;28;20045;-69
2024/01/05 09:05:04;;;;;;;24.55;9.43;;;6.80;99.90;;;;;;5048235;28;20107;-69
2024/01/05 09:07:32;;;;;;;26.48;9.27;;;6.70;99.90;;;;;;5052578;28;20178;-69
2024/01/05 09:09:58;;;;;;;26.77;10.00;;;6.80;99.90;;;;;;5049354;28;20044;-68
2024/01/05 09:12:24;;;;;;;26.10;9.10;;;6.80;99.90;;;;;;5051722;28;20049;-69
2024/01/05 09:14:50;;;;;;;21.30;8.30;;;6.80;99.90;;;;;;5034994;28;20627;-70
2024/01/05 09:17:15;;;;;;;24.73;9.07;;;6.80;99.90;;;;;;5030501;28;20076;-67
2024/01/05 09:19:41;;;;;;;23.17;8.65;;;6.80;99.90;;;;;;5029144;28;20044;-68
2024/01/05 09:22:07;;;;;;;22.23;9.25;;;6.90;99.90;;;;;;5052015;28;20029;-67
2024/01/05 09:24:33;;;;;;;23.67;8.77;;;6.90;99.90;;;;;;5052562;28;20617;-69
2024/01/05 09:26:59;;;;;;;22.08;8.57;;;6.90;99.90;;;;;;5043654;28;20466;-68
2024/01/05 09:29:24;;;;;;;18.80;8.30;;;6.90;99.90;;;;;;5044433;28;20029;-68
2024/01/05 09:31:51;;;;;;;18.35;7.63;;;7.00;99.90;;;;;;5048064;28;20094;-68
2024/01/05 09:34:17;;;;;;;25.25;8.27;;;7.00;99.90;;;;;;5051493;28;20036;-68
2024/01/05 09:36:43;;;;;;;18.55;7.20;;;7.00;99.90;;;;;;5048350;28;20060;-69
2024/01/05 09:39:11;;;;;;;20.38;6.82;;;7.10;99.90;;;;;;5043238;28;20112;-67
2024/01/05 09:41:36;;;;;;;13.68;5.57;;;7.20;99.90;;;;;;5049101;28;20044;-67
2024/01/05 09:44:03;;;;;;;10.57;5.10;;;7.30;99.90;;;;;;5044069;28;20095;-68
2024/01/05 09:46:29;;;;;;;16.50;5.22;;;7.30;99.90;;;;;;5051515;28;20491;-67
2024/01/05 09:48:58;;;;;;;14.90;5.30;;;7.30;99.90;;;;;;5051968;28;20053;-69
2024/01/05 09:51:28;;;;;;;15.43;5.32;;;7.40;99.90;;;;;;5041031;28;20123;-68
2024/01/05 09:53:54;;;;;;;17.88;5.65;;;7.40;99.90;;;;;;5051564;28;20057;-68
2024/01/05 09:56:21;;;;;;;10.10;4.18;;;7.30;99.90;;;;;;5051661;28;20072;-68
2024/01/05 09:58:49;;;;;;;10.32;3.30;;;7.30;99.90;;;;;;5046511;28;20416;-68
2024/01/05 10:01:27;;;;;;;13.65;2.95;;;7.30;99.90;;;;;;5049817;28;20222;-68
2024/01/05 10:04:04;;;;;;;11.63;3.25;;;7.30;99.90;;;;;;5050516;28;20041;-68
2024/01/05 10:06:30;;;;;;;11.88;4.57;;;7.30;99.90;;;;;;5051486;28;20040;-67
2024/01/05 10:08:58;;;;;;;8.60;4.80;;;7.30;99.90;;;;;;5028346;28;20037;-70
2024/01/05 10:11:31;;;;;;;15.07;5.60;;;7.40;99.90;;;;;;5032324;28;20154;-71
2024/01/05 10:14:02;;;;;;;17.45;4.70;;;7.40;99.90;;;;;;5050755;28;20048;-70
2024/01/05 10:16:37;;;;;;;;;;;7.40;99.90;;;;;;5029392;28;20064;-70
2024/01/05 10:19:13;;;;;;;11.55;4.40;;;7.40;99.90;;;;;;5051031;28;19963;-70
2024/01/05 10:21:40;;;;;;;7.75;3.88;;;7.50;99.90;;;;;;5051321;28;20124;-70
2024/01/05 10:24:26;;;;;;;7.72;3.65;;;7.50;99.90;;;;;;5037112;28;20095;-69
2024/01/05 10:27:28;;;;;;;11.25;4.13;;;7.50;99.90;;;;;;5046992;28;20129;-69
2024/01/05 10:29:55;;;;;;;8.23;3.83;;;7.50;99.90;;;;;;4970162;28;20054;-70
2024/01/05 10:32:28;;;;;;;10.23;3.70;;;7.50;99.90;;;;;;5080779;28;20395;-69
2024/01/05 10:34:54;;;;;;;7.40;3.78;;;7.50;99.90;;;;;;5070920;28;20394;-69
2024/01/05 10:37:21;;;;;;;7.85;3.30;;;7.50;99.90;;;;;;5087593;28;20131;-70
2024/01/05 10:39:48;;;;;;;7.75;2.97;;;7.50;99.90;;;;;;5086725;28;20098;-69
2024/01/05 10:42:21;;;;;;;9.20;3.42;;;7.60;99.90;;;;;;5076169;28;20037;-69
2024/01/05 10:44:48;;;;;;;7.35;3.08;;;7.50;99.90;;;;;;5071497;28;20119;-69
2024/01/05 10:47:14;;;;;;;8.15;2.88;;;7.50;99.90;;;;;;5087069;28;20445;-69
2024/01/05 10:49:50;;;;;;;5.55;2.60;;;7.50;99.90;;;;;;5068083;28;20111;-69
2024/01/05 10:52:20;;;;;;;4.90;2.25;;;7.50;99.90;;;;;;5067157;28;20130;-68
2024/01/05 10:54:47;;;;;;;3.90;2.10;;;7.50;99.90;;;;;;5087575;28;20037;-69
2024/01/05 10:57:14;;;;;;;4.57;1.95;;;7.50;99.90;;;;;;5082266;28;20040;-69
2024/01/05 10:59:46;;;;;;;3.70;1.60;;;7.50;99.90;;;;;;5070675;28;20269;-69
2024/01/05 11:02:30;;;;;;;4.75;1.75;;;7.50;99.90;;;;;;5087421;28;20033;-68
2024/01/05 11:05:12;;;;;;;3.95;1.45;;;7.50;99.90;;;;;;5087507;28;20033;-68
2024/01/05 11:07:39;;;;;;;5.05;1.48;;;7.50;99.90;;;;;;5075733;28;20046;-68
2024/01/05 11:10:35;;;;;;;2.45;1.40;;;7.60;99.90;;;;;;5085518;28;20509;-68
2024/01/05 11:13:28;;;;;;;3.20;1.48;;;7.60;99.90;;;;;;5077765;28;20050;-69
2024/01/05 11:16:12;;;;;;;4.70;1.42;;;7.60;99.90;;;;;;5063512;28;20499;-69
2024/01/05 11:19:06;;;;;;;3.50;1.55;;;7.70;99.90;;;;;;5081104;28;20107;-68
2024/01/05 11:21:50;;;;;;;4.43;1.23;;;7.70;99.90;;;;;;5054423;28;20479;-69
2024/01/05 11:24:16;;;;;;;1.85;1.20;;;7.70;99.90;;;;;;5065285;28;20064;-69
2024/01/05 11:26:42;;;;;;;2.58;1.10;;;7.70;99.90;;;;;;5067943;28;20055;-69
2024/01/05 11:29:15;;;;;;;1.88;1.10;;;7.70;99.90;;;;;;5056504;28;20495;-69
2024/01/05 11:31:46;;;;;;;1.40;1.02;;;7.70;99.90;;;;;;5053029;28;20045;-69
2024/01/05 11:34:31;;;;;;;1.35;1.00;;;7.70;99.90;;;;;;5060167;28;20036;-68
2024/01/05 11:36:57;;;;;;;3.53;1.20;;;7.70;99.90;;;;;;5065014;28;20058;-68
2024/01/05 11:39:47;;;;;;;1.30;1.00;;;7.70;99.90;;;;;;5055333;28;20060;-68
2024/01/05 11:42:24;;;;;;;1.80;1.30;;;7.70;99.90;;;;;;5059334;28;20033;-69
2024/01/05 11:44:51;;;;;;;1.77;1.35;;;7.70;99.90;;;;;;5046425;28;20040;-70
2024/01/05 11:47:42;;;;;;;1.90;1.13;;;7.70;99.90;;;;;;5036032;28;20037;-69
2024/01/05 11:50:30;;;;;;;3.80;1.50;;;7.60;99.90;;;;;;5043679;28;20033;-69
2024/01/05 11:53:14;;;;;;;4.38;1.80;;;7.60;99.90;;;;;;5045656;28;20412;-68
2024/01/05 11:55:50;;;;;;;1.50;1.40;;;7.50;99.90;;;;;;5038352;28;20069;-68
2024/01/05 11:58:21;;;;;;;3.50;1.60;;;7.50;99.90;;;;;;5044760;28;20112;-68
2024/01/05 12:00:48;;;;;;;1.77;1.35;;;7.60;99.90;;;;;;5042183;28;20124;-69
2024/01/05 12:03:15;;;;;;;3.20;1.70;;;7.50;99.90;;;;;;5041704;28;20036;-69
2024/01/05 12:05:41;;;;;;;2.78;1.48;;;7.50;99.90;;;;;;5044985;28;20917;-69
2024/01/05 12:08:11;;;;;;;2.58;1.55;;;7.50;99.90;;;;;;5052974;28;20041;-70
2024/01/05 12:10:38;;;;;;;2.05;1.38;;;7.50;99.90;;;;;;5065983;28;20046;-70
2024/01/05 12:13:03;;;;;;;3.13;1.50;;;7.50;99.90;;;;;;5044815;28;20075;-69
2024/01/05 12:15:30;;;;;;;2.20;1.52;;;7.50;99.90;;;;;;5061826;28;20036;-71
2024/01/05 12:18:03;;;;;;;2.25;1.52;;;7.50;99.90;;;;;;5061501;28;20121;-69
2024/01/05 12:20:29;;;;;;;5.28;1.70;;;7.50;99.90;;;;;;5035225;28;20041;-69
2024/01/05 12:22:55;;;;;;;2.65;1.83;;;7.50;99.90;;;;;;5040981;28;20075;-69
2024/01/05 12:25:20;;;;;;;4.57;1.80;;;7.50;99.90;;;;;;5068011;28;20080;-68
2024/01/05 12:27:46;;;;;;;2.60;1.70;;;7.50;99.90;;;;;;5072394;28;20111;-69
2024/01/05 12:30:13;;;;;;;2.15;1.67;;;7.60;99.90;;;;;;5041981;28;20033;-69
2024/01/05 12:32:38;;;;;;;4.07;1.70;;;7.60;99.90;;;;;;5058422;28;20059;-68
2024/01/05 12:35:05;;;;;;;3.42;1.70;;;7.70;99.90;;;;;;5072129;28;20483;-69
2024/01/05 12:37:32;;;;;;;3.63;1.90;;;7.70;99.90;;;;;;5072332;28;20081;-68
2024/01/05 12:40:11;;;;;;;4.07;1.80;;;7.70;99.90;;;;;;5052493;28;20603;-68
2024/01/05 12:42:38;;;;;;;3.13;1.73;;;7.70;99.90;;;;;;5045936;28;20108;-68
2024/01/05 12:45:10;;;;;;;3.00;1.70;;;7.60;99.90;;;;;;5045918;28;20064;-68
2024/01/05 12:47:35;;;;;;;4.07;1.90;;;7.60;99.90;;;;;;5056047;28;20048;-68